Elton, Louisiana
Current Conditions -  °F | °C
As of 1:40 PM on Thursday 23 Oct 2014 (Local Time) from K3R7 Reporting Station
Clear Clear  
Wind Chill: 71°   Ceiling: Unl
Heat Index: 71°   Visibility: 10mi
Dew Point: 50°   Wind: 3mph
Humidity: 47%   Direction: 340°NNW
Pressure: 30.08"   Gusts: NA
Location:  30.48°N, 92.7°W
Report Text: K3R7 231840Z AUTO 34003KT 10SM CLR 22/10 A3008 RMK AO2 T02160099
Loading
Personal Weather Stations






























Interactive Weather Map
Tropical Storm Tracking
New forecast layout! Learn more

10-Day Weather Forecast

Advertisements
Track Severe Weather on mobile